METAR Data
IDs: Format: Raw Decoded Include TAF

Data at: 1954 UTC 17 Nov 2019

KMCI 171853Z 32008KT 10SM BKN025 OVC030 10/04 A2996 RMK AO2 SLP146 T01000044
KMCI 171753Z 33010G17KT 10SM BKN021 BKN029 OVC039 09/04 A2998 RMK AO2 SLP153 T00940044 10100 20072 50000
KMCI 171653Z 34012G20KT 10SM OVC017 09/04 A2999 RMK AO2 SLP158 T00890044
KMCI 171553Z 32010G20KT 10SM BKN018 OVC090 08/04 A2999 RMK AO2 SLP157 T00830044
KMCI 171453Z 30009KT 10SM FEW070 FEW090 BKN110 08/04 A2998 RMK AO2 SLP155 T00780039 53007
KMCI 171353Z 32007KT 10SM OVC110 07/02 A2996 RMK AO2 SLP147 T00720022
KMCI 171253Z 28009KT 10SM BKN130 OVC200 08/01 A2996 RMK AO2 SLP144 T00780006
KMCI 171153Z 22009KT 10SM OVC100 09/00 A2996 RMK AO2 SLP146 T00890000 10100 20083 56006
KMCI 171053Z 22009KT 10SM FEW120 09/M01 A2997 RMK AO2 SLP147 T00891006
KMCI 170953Z 21009KT 10SM CLR 09/M01 A2997 RMK AO2 SLP149 T00941011
KMCI 170853Z 20010KT 10SM CLR 09/M02 A2998 RMK AO2 SLP151 T00941017 56018
KMCI 170753Z 19012KT 10SM CLR 09/M02 A2999 RMK AO2 SLP153 T00941017
KMCI 170653Z 19013G22KT 10SM CLR 10/M02 A3000 RMK AO2 SLP158 T01001022
KMCI 170553Z 18009KT 10SM CLR 09/M03 A3004 RMK AO2 SLP170 T00891028 10111 20050 401440000 58006
KMCI 170453Z 18009KT 10SM OVC150 08/M03 A3005 RMK AO2 SLP174 T00831028
KMCI 170353Z 17005KT 10SM OVC150 07/M03 A3005 RMK AO2 SLP179 T00671028
KMCI 170253Z 17004KT 10SM OVC150 08/M03 A3005 RMK AO2 SLP180 T00781033 53011
KMCI 170153Z 16008KT 10SM OVC150 10/M03 A3003 RMK AO2 SLP172 T01001028
KMCI 170053Z 15011KT 10SM BKN150 11/M03 A3002 RMK AO2 SLP169 T01061028
KMCI 162353Z 15010KT 10SM SCT150 BKN250 11/M02 A3002 RMK AO2 SLP169 T01061022 10144 20106 58013
KMCI 162253Z 15011KT 10SM SCT150 BKN250 12/M02 A3004 RMK AO2 SLP174 T01171017
KMCI 162153Z 15009KT 10SM FEW150 BKN250 12/M02 A3005 RMK AO2 SLP179 T01221017
KMCI 162053Z 15013KT 10SM SCT170 SCT250 14/M02 A3006 RMK AO2 SLP181 T01391017 56030
KMCI 161953Z 16011KT 10SM SCT170 SCT250 14/M02 A3008 RMK AO2 SLP188 T01441022
KMCI 161853Z 15015KT 10SM FEW140 SCT170 SCT220 14/M03 A3011 RMK AO2 SLP198 T01391028
KMCI 161753Z 17011G19KT 10SM SCT140 SCT170 SCT250 13/M03 A3015 RMK AO2 SLP212 T01281028 10128 20006 58025
KMCI 161653Z 15012KT 10SM SCT140 SCT250 11/M04 A3019 RMK AO2 SLP226 T01111039
KMCI 161553Z 16009KT 10SM SCT140 BKN250 08/M04 A3021 RMK AO2 SLP232 T00831044
KMCI 161453Z 17009KT 10SM SCT130 SCT170 BKN250 06/M05 A3023 RMK AO2 SLP240 T00561050 56004
KMCI 161353Z 15010KT 10SM SCT130 SCT170 SCT250 02/M06 A3023 RMK AO2 SLP242 T00221056
KMCI 161253Z 15008KT 10SM CLR 01/M06 A3023 RMK AO2 SLP243 T00111061
KMCI 161153Z 14008KT 10SM CLR 01/M06 A3024 RMK AO2 SLP245 T00061061 10017 20000 58004
KMCI 161053Z 14008KT 10SM CLR 00/M07 A3024 RMK AO2 SLP245 T00001067
KMCI 160953Z 14008KT 10SM CLR 00/M06 A3025 RMK AO2 SLP246 T00001061
KMCI 160853Z 15008KT 10SM CLR 01/M06 A3025 RMK AO2 SLP246 T00111061 56009